Time;durP1;ratioP1;P1;durP2;ratioP2;P2;SDS_P1;SDS_P2;PMS_P1;PMS_P2;Temp;Humidity;BMP_temperature;BMP_pressure;BME280_temperature;BME280_humidity;BME280_pressure;Samples;Min_cycle;Max_cycle;Signal;HPM_P1;HPM_P2
2022/06/29 00:00:41;;;;;;;7.60;2.28;;;25.60;54.70;;;;;;6153643;28;20034;-69
2022/06/29 00:03:41;;;;;;;4.80;2.17;;;25.70;54.70;;;;;;6174334;28;20081;-69
2022/06/29 00:06:43;;;;;;;4.38;2.13;;;25.70;54.70;;;;;;6187768;28;20026;-69
2022/06/29 00:09:44;;;;;;;5.28;2.00;;;25.70;54.70;;;;;;6194495;28;20176;-69
2022/06/29 00:12:46;;;;;;;7.40;2.40;;;25.70;54.70;;;;;;6202591;28;20026;-69
2022/06/29 00:15:47;;;;;;;4.93;1.90;;;25.70;54.70;;;;;;6169107;28;20424;-69
2022/06/29 00:18:49;;;;;;;5.90;2.28;;;25.70;54.70;;;;;;6181472;28;20073;-69
2022/06/29 00:21:50;;;;;;;6.00;2.03;;;25.70;54.70;;;;;;6186488;28;20100;-69
2022/06/29 00:24:51;;;;;;;2.08;1.88;;;25.70;54.60;;;;;;6179367;28;20107;-69
2022/06/29 00:27:52;;;;;;;6.90;2.03;;;25.70;54.70;;;;;;6201563;28;20546;-69
2022/06/29 00:30:53;;;;;;;4.75;2.40;;;25.70;54.70;;;;;;6184589;28;20030;-69
2022/06/29 00:33:54;;;;;;;3.72;1.73;;;25.70;54.80;;;;;;6178629;28;20054;-69
2022/06/29 00:36:55;;;;;;;2.80;1.92;;;25.60;54.80;;;;;;6186436;28;20026;-69
2022/06/29 00:39:57;;;;;;;3.60;1.90;;;25.60;54.90;;;;;;6167401;28;20022;-69
2022/06/29 00:42:58;;;;;;;3.22;1.95;;;25.50;55.00;;;;;;6149610;28;20023;-69
2022/06/29 00:45:59;;;;;;;2.55;1.77;;;25.50;55.00;;;;;;6178456;28;20453;-69
2022/06/29 00:49:00;;;;;;;8.80;1.80;;;25.40;55.10;;;;;;6178299;28;20073;-69
2022/06/29 00:52:29;;;;;;;2.92;1.67;;;25.40;55.20;;;;;;6174585;28;20125;-69
2022/06/29 00:55:32;;;;;;;3.28;1.90;;;25.30;55.40;;;;;;6165770;28;20353;-69
2022/06/29 00:58:33;;;;;;;5.00;1.90;;;25.30;55.30;;;;;;6201251;28;20022;-68
2022/06/29 01:01:36;;;;;;;4.22;1.67;;;25.30;55.30;;;;;;6183865;28;20133;-69
2022/06/29 01:04:38;;;;;;;2.40;1.70;;;25.30;55.30;;;;;;6176000;28;20345;-70
2022/06/29 01:07:39;;;;;;;10.55;2.00;;;25.30;55.30;;;;;;6183576;28;20030;-70
2022/06/29 01:10:40;;;;;;;2.88;1.95;;;25.30;55.20;;;;;;6183673;28;20109;-69
2022/06/29 01:13:44;;;;;;;6.15;1.85;;;25.30;55.10;;;;;;6167899;28;20027;-69
2022/06/29 01:16:46;;;;;;;4.50;1.88;;;25.40;55.20;;;;;;6160737;28;20352;-69
2022/06/29 01:19:47;;;;;;;2.45;1.60;;;25.40;55.10;;;;;;6177454;28;20439;-69
2022/06/29 01:22:48;;;;;;;2.03;1.65;;;25.40;55.10;;;;;;6177145;28;20085;-69
2022/06/29 01:25:50;;;;;;;2.50;1.88;;;25.40;55.10;;;;;;6160318;28;20035;-69
2022/06/29 01:28:51;;;;;;;3.22;2.03;;;25.40;55.10;;;;;;6168403;28;20036;-68
2022/06/29 01:31:56;;;;;;;5.63;2.22;;;25.40;55.10;;;;;;6183119;28;20030;-70
2022/06/29 01:34:57;;;;;;;2.83;1.90;;;25.30;55.20;;;;;;6167062;28;20026;-69
2022/06/29 01:37:59;;;;;;;3.55;2.25;;;25.40;55.20;;;;;;6166989;28;20072;-68
2022/06/29 01:41:00;;;;;;;10.07;2.45;;;25.40;55.20;;;;;;6182205;28;20034;-68
2022/06/29 01:44:01;;;;;;;4.85;2.35;;;25.40;55.10;;;;;;6200168;28;20061;-70
2022/06/29 01:47:03;;;;;;;5.80;1.60;;;25.50;55.10;;;;;;6200131;28;20447;-68
2022/06/29 01:50:05;;;;;;;3.05;2.08;;;25.50;55.10;;;;;;6176870;28;20526;-68
2022/06/29 01:53:06;;;;;;;3.08;1.92;;;25.50;55.10;;;;;;6182636;28;20031;-68
2022/06/29 01:56:07;;;;;;;3.05;1.75;;;25.50;55.00;;;;;;6165860;28;20026;-68
2022/06/29 01:59:08;;;;;;;7.50;2.13;;;25.60;55.10;;;;;;6183131;28;20038;-68
2022/06/29 02:02:09;;;;;;;4.30;2.08;;;25.60;55.00;;;;;;6182669;28;20121;-68
2022/06/29 02:05:12;;;;;;;3.03;1.83;;;25.60;54.90;;;;;;6182022;28;20054;-68
2022/06/29 02:08:13;;;;;;;3.95;1.90;;;25.60;54.90;;;;;;6182582;28;20030;-68
2022/06/29 02:11:14;;;;;;;3.75;1.92;;;25.60;54.90;;;;;;6169279;28;20065;-68
2022/06/29 02:14:15;;;;;;;2.30;2.03;;;25.60;54.80;;;;;;6181537;28;20054;-68
2022/06/29 02:17:17;;;;;;;1.90;1.58;;;25.60;54.80;;;;;;6179347;28;20420;-69
2022/06/29 02:20:17;;;;;;;4.50;2.10;;;25.50;54.80;;;;;;6176583;28;20022;-71
2022/06/29 02:23:20;;;;;;;2.08;1.80;;;25.50;54.90;;;;;;6143226;28;20358;-69
2022/06/29 02:26:21;;;;;;;2.65;1.80;;;25.50;55.00;;;;;;6176368;28;20464;-69
2022/06/29 02:29:22;;;;;;;5.60;1.95;;;25.50;55.10;;;;;;6158973;28;20034;-69
2022/06/29 02:35:43;;;;;;;5.95;2.33;;;25.50;55.10;;;;;;6159303;28;20042;-69
2022/06/29 02:38:44;;;;;;;5.63;1.98;;;25.50;55.10;;;;;;6168394;28;20030;-69
2022/06/29 02:41:45;;;;;;;6.50;2.00;;;25.50;55.10;;;;;;6179603;28;20152;-68
2022/06/29 02:44:46;;;;;;;4.75;1.92;;;25.50;55.10;;;;;;6180906;28;20022;-69
2022/06/29 02:47:47;;;;;;;4.57;2.40;;;25.50;55.20;;;;;;6162116;28;20404;-69
2022/06/29 02:50:48;;;;;;;3.22;1.90;;;25.40;55.30;;;;;;6145067;28;20030;-69
2022/06/29 02:53:49;;;;;;;4.65;2.15;;;25.50;55.40;;;;;;6147941;28;20030;-69
2022/06/29 02:56:51;;;;;;;3.40;1.73;;;25.50;55.50;;;;;;6180894;28;20045;-69
2022/06/29 02:59:52;;;;;;;3.47;1.90;;;25.40;55.40;;;;;;6163427;28;20404;-69
2022/06/29 03:02:53;;;;;;;2.38;2.03;;;25.40;55.50;;;;;;6168447;28;20031;-68
2022/06/29 03:05:54;;;;;;;6.55;1.73;;;25.40;55.50;;;;;;6175421;28;20045;-69
2022/06/29 03:08:55;;;;;;;3.60;1.95;;;25.40;55.70;;;;;;6170335;28;20038;-68
2022/06/29 03:11:56;;;;;;;7.82;1.90;;;25.30;55.60;;;;;;6169545;28;20441;-68
2022/06/29 03:14:57;;;;;;;10.35;1.98;;;25.30;55.70;;;;;;6163548;28;20037;-69
2022/06/29 03:17:58;;;;;;;6.25;1.98;;;25.40;55.70;;;;;;6163307;28;20038;-69
2022/06/29 03:20:59;;;;;;;4.63;2.10;;;25.40;55.60;;;;;;6180058;28;20463;-68
2022/06/29 03:24:03;;;;;;;10.30;2.30;;;25.40;55.60;;;;;;6160790;28;20069;-69
2022/06/29 03:27:04;;;;;;;3.25;1.83;;;25.30;55.60;;;;;;6177827;28;20031;-68
2022/06/29 03:30:06;;;;;;;4.70;2.22;;;25.30;55.60;;;;;;6155219;28;20134;-69
2022/06/29 03:33:08;;;;;;;3.58;1.70;;;25.30;55.80;;;;;;6139185;28;20046;-68
2022/06/29 03:36:09;;;;;;;3.80;1.90;;;25.30;55.80;;;;;;6157581;28;20038;-68
2022/06/29 03:39:10;;;;;;;3.58;1.90;;;25.40;55.90;;;;;;6177771;28;20038;-68
2022/06/29 03:42:11;;;;;;;3.22;2.35;;;25.30;55.90;;;;;;6177639;28;20109;-69
2022/06/29 03:45:12;;;;;;;3.20;2.10;;;25.40;56.00;;;;;;6175622;28;20432;-68
2022/06/29 03:48:15;;;;;;;7.05;2.03;;;25.40;56.10;;;;;;6155673;28;20036;-68
2022/06/29 03:51:16;;;;;;;6.35;2.08;;;25.40;56.20;;;;;;6155574;28;20027;-69
2022/06/29 03:54:17;;;;;;;3.25;2.10;;;25.40;56.30;;;;;;6163514;28;20644;-69
2022/06/29 03:57:18;;;;;;;9.15;2.22;;;25.30;56.40;;;;;;6178380;28;20039;-69
2022/06/29 04:00:19;;;;;;;3.58;2.10;;;25.30;56.40;;;;;;6177705;28;20027;-69
2022/06/29 04:03:20;;;;;;;8.82;2.28;;;25.30;56.50;;;;;;6176752;28;20459;-69
2022/06/29 04:06:22;;;;;;;2.95;2.08;;;25.30;56.50;;;;;;6177419;28;20463;-69
2022/06/29 04:09:23;;;;;;;4.63;2.30;;;25.30;56.40;;;;;;6169032;28;20035;-69
2022/06/29 04:12:23;;;;;;;3.35;1.80;;;25.30;56.40;;;;;;6176268;28;20435;-69
2022/06/29 04:15:24;;;;;;;6.25;1.80;;;25.30;56.40;;;;;;6177217;28;20038;-68
2022/06/29 04:18:26;;;;;;;4.80;2.25;;;25.30;56.50;;;;;;6178256;28;20393;-69
2022/06/29 04:21:27;;;;;;;3.72;2.03;;;25.30;56.50;;;;;;6180836;28;20045;-69
2022/06/29 04:24:28;;;;;;;3.30;1.88;;;25.30;56.50;;;;;;6184690;28;20130;-69
2022/06/29 04:27:29;;;;;;;5.85;2.45;;;25.30;56.50;;;;;;6185035;28;20041;-69
2022/06/29 04:30:29;;;;;;;4.13;2.40;;;25.30;56.50;;;;;;6184982;28;20037;-69
2022/06/29 04:33:31;;;;;;;7.35;2.10;;;25.20;56.60;;;;;;6202035;28;20116;-69
2022/06/29 04:36:32;;;;;;;6.32;1.90;;;25.20;56.70;;;;;;6177667;28;20042;-69
2022/06/29 04:39:33;;;;;;;4.82;2.03;;;25.20;56.80;;;;;;6177257;28;20097;-69
2022/06/29 04:42:34;;;;;;;12.15;2.38;;;25.10;56.90;;;;;;6201589;28;20034;-69
2022/06/29 04:48:59;;;;;;;6.90;2.20;;;25.10;57.00;;;;;;6183452;28;20118;-68
2022/06/29 04:52:00;;;;;;;3.83;2.15;;;25.10;57.00;;;;;;6129789;28;20365;-69
2022/06/29 04:55:02;;;;;;;7.93;2.65;;;25.10;57.00;;;;;;6145203;28;20041;-69
2022/06/29 04:58:03;;;;;;;3.85;2.38;;;25.10;57.00;;;;;;6178202;28;20031;-69
2022/06/29 05:01:05;;;;;;;5.80;2.53;;;25.10;57.00;;;;;;6178156;28;20117;-69
2022/06/29 05:04:06;;;;;;;6.40;2.80;;;25.10;56.90;;;;;;6177975;28;20066;-68
2022/06/29 05:07:07;;;;;;;9.80;2.50;;;25.20;56.90;;;;;;6145067;28;20031;-68
2022/06/29 05:10:09;;;;;;;4.65;2.38;;;25.20;56.90;;;;;;6198000;28;20015;-70
2022/06/29 05:13:13;;;;;;;9.50;2.60;;;25.20;56.80;;;;;;6166265;28;20049;-68
2022/06/29 05:16:14;;;;;;;5.30;2.30;;;25.20;56.70;;;;;;6177347;28;20030;-67
2022/06/29 05:19:21;;;;;;;7.00;2.30;;;25.30;56.60;;;;;;6200186;28;20077;-71
2022/06/29 05:22:21;;;;;;;2.97;2.10;;;25.30;56.50;;;;;;6159714;28;20061;-68
2022/06/29 05:25:23;;;;;;;4.43;2.58;;;25.30;56.30;;;;;;6188164;28;20039;-71
2022/06/29 05:28:25;;;;;;;4.72;2.33;;;25.30;56.20;;;;;;6176202;28;20148;-69
2022/06/29 05:31:29;;;;;;;52.38;4.57;;;25.30;56.00;;;;;;6155835;28;20034;-69
2022/06/29 05:34:30;;;;;;;3.72;2.55;;;25.30;55.90;;;;;;6152340;28;20082;-69
2022/06/29 05:37:32;;;;;;;10.38;2.25;;;25.40;55.90;;;;;;6136976;28;20043;-69
2022/06/29 05:40:33;;;;;;;12.68;2.40;;;25.40;55.80;;;;;;6175777;28;20133;-69
2022/06/29 05:43:34;;;;;;;6.65;2.83;;;25.50;55.80;;;;;;6175084;28;20031;-69
2022/06/29 05:46:35;;;;;;;9.30;2.28;;;25.50;55.70;;;;;;6175068;28;20055;-69
2022/06/29 05:49:37;;;;;;;5.68;2.10;;;25.50;55.50;;;;;;6175771;28;20027;-69
2022/06/29 05:52:38;;;;;;;11.23;2.47;;;25.60;55.50;;;;;;6166619;28;20031;-69
2022/06/29 05:55:39;;;;;;;12.98;2.28;;;25.50;55.40;;;;;;6174622;28;20105;-69
2022/06/29 05:58:40;;;;;;;8.35;2.22;;;25.50;55.30;;;;;;6174506;28;20049;-69
2022/06/29 06:01:41;;;;;;;9.25;2.40;;;25.60;56.00;;;;;;6158931;28;20070;-68
2022/06/29 06:04:42;;;;;;;9.45;2.13;;;25.60;55.20;;;;;;6152445;28;20038;-68
2022/06/29 06:07:43;;;;;;;5.88;2.10;;;25.70;55.10;;;;;;6162507;28;20118;-69
2022/06/29 06:10:44;;;;;;;2.88;1.83;;;25.70;54.90;;;;;;6174131;28;20496;-69
2022/06/29 06:13:45;;;;;;;3.75;2.13;;;25.80;54.80;;;;;;6175724;28;20031;-69
2022/06/29 06:16:46;;;;;;;3.78;2.42;;;25.80;54.60;;;;;;6174397;28;20035;-69
2022/06/29 06:19:47;;;;;;;7.30;2.17;;;25.80;54.40;;;;;;6174942;28;20041;-69
2022/06/29 06:22:49;;;;;;;3.92;2.28;;;25.90;54.40;;;;;;6189255;28;20050;-69
2022/06/29 06:25:50;;;;;;;9.30;2.40;;;25.90;54.20;;;;;;6181534;28;20109;-69
2022/06/29 06:28:52;;;;;;;5.53;2.35;;;25.90;54.10;;;;;;6181764;28;20498;-71
2022/06/29 06:31:53;;;;;;;12.10;2.50;;;26.00;53.90;;;;;;6181238;28;20038;-68
2022/06/29 06:34:54;;;;;;;10.98;2.50;;;26.00;53.70;;;;;;6198743;28;20050;-69
2022/06/29 06:37:55;;;;;;;6.65;1.98;;;26.00;53.60;;;;;;6181581;28;20069;-69
2022/06/29 06:44:15;;;;;;;5.30;2.30;;;26.00;53.50;;;;;;6160523;28;20027;-69
2022/06/29 06:47:16;;;;;;;3.72;1.92;;;26.00;53.40;;;;;;6175936;28;20049;-70
2022/06/29 06:50:17;;;;;;;5.88;2.22;;;26.00;53.20;;;;;;6197347;28;20097;-70
2022/06/29 06:53:19;;;;;;;2.55;1.83;;;26.00;53.00;;;;;;6181239;28;20033;-69
2022/06/29 06:56:20;;;;;;;5.30;2.05;;;26.10;53.00;;;;;;6165466;28;20069;-69
2022/06/29 06:59:21;;;;;;;6.70;2.40;;;26.10;52.90;;;;;;6165387;28;20383;-69
2022/06/29 07:02:23;;;;;;;4.28;2.28;;;26.20;52.50;;;;;;6198405;28;20073;-69
2022/06/29 07:05:25;;;;;;;3.95;2.20;;;26.20;52.30;;;;;;6152270;28;20034;-70
2022/06/29 07:08:27;;;;;;;6.65;2.22;;;26.30;52.00;;;;;;6149757;28;20037;-69
2022/06/29 07:11:28;;;;;;;5.82;2.13;;;26.40;51.80;;;;;;6158172;28;20101;-70
2022/06/29 07:14:30;;;;;;;3.70;2.17;;;26.50;51.50;;;;;;6175586;28;20027;-69
2022/06/29 07:17:32;;;;;;;3.95;1.85;;;26.60;51.30;;;;;;6165748;28;20047;-69
2022/06/29 07:20:33;;;;;;;13.55;2.35;;;26.60;50.90;;;;;;6164701;28;20038;-69
2022/06/29 07:23:34;;;;;;;5.50;2.47;;;26.70;50.90;;;;;;6158534;28;20118;-69
2022/06/29 07:26:35;;;;;;;5.03;2.20;;;26.80;50.80;;;;;;6158244;28;20535;-70
2022/06/29 07:29:36;;;;;;;5.97;2.47;;;26.80;50.60;;;;;;6175648;28;20045;-70
2022/06/29 07:32:37;;;;;;;6.60;2.40;;;26.90;50.40;;;;;;6158789;28;20026;-70
2022/06/29 07:35:38;;;;;;;7.20;2.60;;;27.00;50.20;;;;;;6175769;28;20030;-70
2022/06/29 07:38:39;;;;;;;6.95;2.22;;;27.00;50.20;;;;;;6174857;28;20030;-69
2022/06/29 07:41:41;;;;;;;5.00;2.17;;;27.20;50.10;;;;;;6202582;28;20100;-69
2022/06/29 07:44:42;;;;;;;4.97;2.20;;;27.30;50.00;;;;;;6185039;28;20478;-69
2022/06/29 07:47:44;;;;;;;5.60;2.28;;;27.40;49.80;;;;;;6185672;28;20026;-69
2022/06/29 07:50:45;;;;;;;7.03;2.33;;;27.50;49.60;;;;;;6178156;28;20030;-70
2022/06/29 07:53:46;;;;;;;3.25;2.25;;;27.60;49.40;;;;;;6179313;28;20061;-69
2022/06/29 07:56:57;;;;;;;3.15;1.98;;;27.70;49.20;;;;;;6179122;28;20034;-68
2022/06/29 08:00:13;;;;;;;8.93;2.50;;;27.80;49.30;;;;;;6201154;28;20034;-69
2022/06/29 08:03:19;;;;;;;6.82;2.15;;;27.90;48.90;;;;;;6201915;28;20408;-70
2022/06/29 08:06:21;;;;;;;7.70;3.20;;;27.90;48.70;;;;;;6185012;28;20452;-70
2022/06/29 08:09:23;;;;;;;8.00;2.33;;;27.90;48.80;;;;;;6182321;28;20034;-69
2022/06/29 08:12:24;;;;;;;7.07;2.70;;;28.00;48.60;;;;;;6173448;28;20081;-70
2022/06/29 08:15:35;;;;;;;10.57;2.97;;;28.00;48.30;;;;;;6184666;28;20097;-69
2022/06/29 08:18:48;;;;;;;7.82;2.20;;;28.00;48.40;;;;;;6185466;28;20034;-69
2022/06/29 08:21:53;;;;;;;3.67;2.30;;;27.90;48.50;;;;;;6168514;28;20196;-71
2022/06/29 08:24:54;;;;;;;5.72;2.70;;;27.90;48.50;;;;;;6185048;28;20460;-69
2022/06/29 08:27:55;;;;;;;7.78;2.17;;;27.90;48.70;;;;;;6184204;28;20030;-71
2022/06/29 08:30:56;;;;;;;6.18;2.42;;;27.90;48.80;;;;;;6184496;28;20036;-69
2022/06/29 08:33:59;;;;;;;5.68;2.28;;;27.90;48.70;;;;;;6201768;28;20026;-69
2022/06/29 08:37:00;;;;;;;7.70;2.65;;;28.10;48.60;;;;;;6177062;28;20026;-69
2022/06/29 08:40:01;;;;;;;3.78;2.60;;;28.10;48.50;;;;;;6182278;28;20197;-70
2022/06/29 08:43:02;;;;;;;5.93;2.72;;;28.20;48.40;;;;;;6180525;28;20068;-70
2022/06/29 08:46:04;;;;;;;6.00;2.22;;;28.30;48.40;;;;;;6184356;28;20030;-70
2022/06/29 08:49:05;;;;;;;9.40;2.83;;;28.40;48.20;;;;;;6146002;28;20427;-70
2022/06/29 08:52:08;;;;;;;6.97;2.70;;;28.50;47.90;;;;;;6184989;28;20368;-70
2022/06/29 08:55:10;;;;;;;15.52;2.65;;;28.70;47.70;;;;;;6155892;28;20041;-70
2022/06/29 08:58:19;;;;;;;5.78;2.70;;;28.80;47.50;;;;;;6183236;28;20042;-70
2022/06/29 09:01:20;;;;;;;15.98;5.60;;;29.00;47.50;;;;;;6200577;28;20049;-71
2022/06/29 09:04:21;;;;;;;7.10;3.25;;;29.10;47.20;;;;;;6183610;28;20038;-69
2022/06/29 09:07:24;;;;;;;6.90;2.60;;;29.20;46.90;;;;;;6183872;28;20034;-71
2022/06/29 09:10:28;;;;;;;6.28;2.90;;;29.20;46.70;;;;;;6177547;28;20080;-69
2022/06/29 09:13:29;;;;;;;5.47;2.78;;;29.30;46.60;;;;;;6177353;28;20023;-70
2022/06/29 09:16:30;;;;;;;6.70;3.15;;;29.40;46.60;;;;;;6160101;28;20357;-70
2022/06/29 09:19:34;;;;;;;6.45;2.97;;;29.70;46.20;;;;;;6160071;28;20042;-70
2022/06/29 09:22:50;;;;;;;9.00;2.90;;;29.80;46.00;;;;;;6165972;28;20042;-70
2022/06/29 09:25:52;;;;;;;6.22;2.92;;;29.90;45.80;;;;;;6165686;28;20030;-71
2022/06/29 09:28:53;;;;;;;7.32;2.97;;;29.90;45.50;;;;;;6199654;28;20026;-70
2022/06/29 09:32:09;;;;;;;8.30;3.28;;;30.00;45.50;;;;;;6181180;28;20034;-70
2022/06/29 09:35:13;;;;;;;7.35;2.42;;;30.00;45.30;;;;;;6197283;28;20031;-71
2022/06/29 09:38:25;;;;;;;5.38;2.75;;;30.10;45.00;;;;;;6200130;28;20544;-71
2022/06/29 09:41:27;;;;;;;6.22;2.53;;;30.20;44.70;;;;;;6166741;28;20348;-70
2022/06/29 09:44:28;;;;;;;4.43;3.20;;;30.30;44.70;;;;;;6143745;28;20039;-69
2022/06/29 09:47:30;;;;;;;10.25;2.90;;;30.40;44.40;;;;;;6159367;28;20035;-70
2022/06/29 09:50:32;;;;;;;4.18;2.90;;;30.40;44.10;;;;;;6176453;28;20030;-70
2022/06/29 09:53:39;;;;;;;6.78;3.30;;;30.50;44.10;;;;;;6176278;28;20401;-70
2022/06/29 09:56:49;;;;;;;9.38;3.20;;;30.60;44.00;;;;;;6163661;28;20468;-70
2022/06/29 10:03:13;;;;;;;6.00;3.63;;;30.80;43.70;;;;;;6162650;28;20084;-71
2022/06/29 10:06:17;;;;;;;6.55;2.95;;;30.90;43.70;;;;;;6152210;28;20034;-71
2022/06/29 10:09:19;;;;;;;6.00;3.38;;;31.00;43.70;;;;;;6176328;28;20037;-70
2022/06/29 10:16:05;;;;;;;7.93;3.38;;;30.90;43.10;;;;;;6198606;28;20031;-69
2022/06/29 10:19:27;;;;;;;4.95;3.00;;;30.60;43.40;;;;;;6180917;28;20130;-69
2022/06/29 10:22:31;;;;;;;8.18;2.78;;;30.50;43.50;;;;;;6198591;28;20066;-70
2022/06/29 10:25:32;;;;;;;6.85;2.72;;;30.40;43.40;;;;;;6198426;28;20451;-71
2022/06/29 10:28:33;;;;;;;4.18;2.53;;;30.30;43.20;;;;;;6181389;28;20105;-69
2022/06/29 10:31:57;;;;;;;9.63;2.50;;;30.30;43.10;;;;;;6181333;28;20030;-70
2022/06/29 10:35:07;;;;;;;9.05;2.25;;;30.30;43.00;;;;;;6181626;28;20018;-69
2022/06/29 10:38:08;;;;;;;7.90;1.75;;;30.30;42.60;;;;;;6181638;28;20030;-69
2022/06/29 10:43:07;;;;;;;3.40;2.08;;;30.30;42.10;;;;;;6198328;28;20045;-70
2022/06/29 10:44:55;;;;;;;2.55;1.90;;;30.30;41.70;;;;;;6175250;28;20045;-70
2022/06/29 10:47:57;;;;;;;5.88;2.00;;;30.30;41.30;;;;;;6177006;28;20034;-72
2022/06/29 10:50:58;;;;;;;8.98;2.13;;;30.30;40.90;;;;;;6197753;28;20048;-71
2022/06/29 10:53:59;;;;;;;7.25;2.00;;;30.30;40.20;;;;;;6165188;28;20153;-70
2022/06/29 10:57:01;;;;;;;5.72;1.80;;;30.40;39.60;;;;;;6192850;28;20561;-69
2022/06/29 11:00:09;;;;;;;4.80;2.40;;;30.60;39.30;;;;;;6175121;28;20051;-69
2022/06/29 11:03:13;;;;;;;10.10;1.85;;;30.60;38.90;;;;;;6158138;28;20367;-70
2022/06/29 11:13:04;;;;;;;3.20;2.00;;;32.00;36.90;;;;;;6176857;28;20038;-69
2022/06/29 11:16:05;;;;;;;3.33;1.88;;;33.30;34.90;;;;;;6167214;28;20449;-70
2022/06/29 11:19:07;;;;;;;4.88;2.47;;;34.20;33.70;;;;;;6186734;28;20062;-70
2022/06/29 11:22:10;;;;;;;3.58;1.90;;;35.10;32.60;;;;;;6179413;28;20119;-69
2022/06/29 11:25:11;;;;;;;4.80;1.73;;;35.70;31.30;;;;;;6176563;28;20030;-70
2022/06/29 11:28:13;;;;;;;6.28;2.13;;;36.10;30.80;;;;;;6202123;28;20451;-70
2022/06/29 11:31:14;;;;;;;4.40;2.03;;;36.60;30.40;;;;;;6185090;28;20034;-69
2022/06/29 11:34:15;;;;;;;2.90;1.80;;;37.20;29.90;;;;;;6168570;28;20026;-70
2022/06/29 11:37:16;;;;;;;5.65;2.20;;;37.60;29.50;;;;;;6195380;28;20027;-70
2022/06/29 11:40:43;;;;;;;3.00;2.03;;;38.00;29.30;;;;;;6162903;28;20042;-69
2022/06/29 11:43:46;;;;;;;4.72;2.10;;;38.10;29.10;;;;;;6161470;28;20049;-70
2022/06/29 11:46:47;;;;;;;9.43;2.53;;;38.40;29.00;;;;;;6201073;28;20057;-70
2022/06/29 11:49:48;;;;;;;2.65;1.90;;;38.60;28.60;;;;;;6164976;28;20112;-70
2022/06/29 11:52:51;;;;;;;4.15;2.13;;;38.70;28.60;;;;;;6178999;28;20453;-70
2022/06/29 11:55:57;;;;;;;12.43;2.40;;;38.80;28.40;;;;;;6182278;28;20038;-70
2022/06/29 11:59:05;;;;;;;5.60;2.50;;;38.70;28.20;;;;;;6181992;28;20536;-69
2022/06/29 12:02:07;;;;;;;5.95;2.20;;;38.40;28.20;;;;;;6178646;28;20087;-70
2022/06/29 12:05:08;;;;;;;7.97;2.00;;;38.50;28.30;;;;;;6161646;28;20105;-70
2022/06/29 12:08:09;;;;;;;7.68;2.28;;;38.80;28.10;;;;;;6181051;28;20120;-70
2022/06/29 12:11:10;;;;;;;4.03;2.08;;;39.30;27.60;;;;;;6163915;28;20035;-70
2022/06/29 12:14:11;;;;;;;8.93;2.13;;;39.70;27.20;;;;;;6161325;28;20105;-70
2022/06/29 12:17:13;;;;;;;4.65;1.95;;;39.70;26.90;;;;;;6201888;28;20042;-70
2022/06/29 12:20:15;;;;;;;3.70;2.53;;;39.80;26.80;;;;;;6184696;28;20042;-69
2022/06/29 12:23:16;;;;;;;4.82;1.92;;;39.80;26.70;;;;;;6200862;28;20056;-70
2022/06/29 12:26:17;;;;;;;9.45;2.25;;;39.90;26.50;;;;;;6167972;28;20032;-71
2022/06/29 12:29:18;;;;;;;11.05;2.58;;;39.80;26.50;;;;;;6180700;28;20031;-70
2022/06/29 12:32:20;;;;;;;5.20;2.67;;;40.00;26.40;;;;;;6180796;28;20097;-70
2022/06/29 12:35:21;;;;;;;8.75;2.60;;;40.20;25.90;;;;;;6201397;28;20070;-70
2022/06/29 12:38:22;;;;;;;6.45;2.13;;;40.20;25.50;;;;;;6183261;28;20048;-70
2022/06/29 12:41:23;;;;;;;4.38;2.10;;;39.90;25.70;;;;;;6167116;28;20030;-71
2022/06/29 12:44:25;;;;;;;3.72;1.70;;;39.80;25.90;;;;;;6192105;28;20157;-70
2022/06/29 12:47:27;;;;;;;6.82;2.10;;;40.00;25.80;;;;;;6160378;28;20054;-70
2022/06/29 12:50:28;;;;;;;14.40;2.38;;;40.20;25.70;;;;;;6160791;28;20495;-70
2022/06/29 12:53:29;;;;;;;2.35;1.38;;;40.40;25.50;;;;;;6181659;28;20027;-70
2022/06/29 12:56:30;;;;;;;8.95;2.08;;;40.70;25.10;;;;;;6183172;28;20121;-70
2022/06/29 12:59:31;;;;;;;6.38;1.63;;;41.00;24.80;;;;;;6200343;28;20033;-71
2022/06/29 13:02:32;;;;;;;2.53;1.50;;;41.40;24.40;;;;;;6167508;28;20034;-69
2022/06/29 13:05:35;;;;;;;3.97;1.75;;;41.70;24.10;;;;;;6167722;28;20041;-69
2022/06/29 13:08:36;;;;;;;3.00;1.33;;;42.20;23.70;;;;;;6200165;28;20301;-71
2022/06/29 13:11:37;;;;;;;5.55;1.60;;;42.50;23.30;;;;;;6169688;28;20178;-69
2022/06/29 13:14:38;;;;;;;3.60;1.50;;;42.60;23.20;;;;;;6177363;28;20054;-70
2022/06/29 13:17:39;;;;;;;2.67;1.50;;;42.90;22.90;;;;;;6160267;28;20035;-70
2022/06/29 13:20:41;;;;;;;4.68;1.60;;;43.20;22.60;;;;;;6160782;28;20038;-69
2022/06/29 13:23:42;;;;;;;2.60;1.70;;;43.40;22.50;;;;;;6195591;28;20056;-71
2022/06/29 13:26:43;;;;;;;11.85;1.42;;;44.00;22.20;;;;;;6159975;28;20375;-71
2022/06/29 13:29:45;;;;;;;3.05;1.45;;;44.50;21.70;;;;;;6177012;28;20531;-70
2022/06/29 13:32:46;;;;;;;2.70;1.80;;;44.70;21.80;;;;;;6159614;28;20031;-70
2022/06/29 13:35:49;;;;;;;6.18;1.60;;;44.90;21.00;;;;;;6181701;28;20054;-70
2022/06/29 13:38:50;;;;;;;3.50;1.92;;;45.10;20.70;;;;;;6172221;28;20034;-70
2022/06/29 13:41:51;;;;;;;6.68;1.70;;;45.40;20.40;;;;;;6182323;28;20037;-70
2022/06/29 13:44:53;;;;;;;5.03;1.40;;;46.00;20.10;;;;;;6199760;28;20125;-69
2022/06/29 13:47:54;;;;;;;7.40;2.58;;;46.60;19.70;;;;;;6199734;28;20030;-70
2022/06/29 13:50:55;;;;;;;14.80;1.60;;;47.00;19.40;;;;;;6182531;28;20037;-70
2022/06/29 13:53:57;;;;;;;3.38;1.40;;;47.10;19.30;;;;;;6199323;28;20026;-70
2022/06/29 13:56:58;;;;;;;2.65;1.20;;;47.30;19.00;;;;;;6181777;28;20031;-70
2022/06/29 13:59:59;;;;;;;5.25;1.40;;;47.60;18.70;;;;;;6182091;28;20467;-70
2022/06/29 14:03:00;;;;;;;2.22;1.38;;;47.80;18.40;;;;;;6199684;28;20050;-70
2022/06/29 14:06:01;;;;;;;7.63;1.70;;;47.70;18.40;;;;;;6165393;28;20111;-70
2022/06/29 14:09:03;;;;;;;1.50;1.40;;;47.40;18.70;;;;;;6184679;28;20042;-71
2022/06/29 14:12:04;;;;;;;4.80;1.88;;;47.30;18.90;;;;;;6163162;28;20423;-70
2022/06/29 14:15:06;;;;;;;9.10;1.55;;;47.50;18.90;;;;;;6182258;28;20669;-70
2022/06/29 14:18:07;;;;;;;2.28;1.30;;;47.50;18.90;;;;;;6181764;28;20034;-70
2022/06/29 14:21:08;;;;;;;3.03;1.30;;;47.70;18.80;;;;;;6165814;28;20044;-70
2022/06/29 14:24:09;;;;;;;4.57;1.63;;;48.00;18.70;;;;;;6165799;28;20049;-72
2022/06/29 14:27:10;;;;;;;11.35;1.95;;;48.40;18.30;;;;;;6181462;28;20513;-70
2022/06/29 14:30:11;;;;;;;6.15;1.23;;;48.20;18.30;;;;;;6168850;28;20052;-70
2022/06/29 14:33:13;;;;;;;5.72;1.75;;;48.10;18.10;;;;;;6142821;28;20452;-70
2022/06/29 14:36:14;;;;;;;6.68;2.03;;;47.70;18.10;;;;;;6174432;28;20026;-70
2022/06/29 14:39:15;;;;;;;2.58;1.27;;;47.30;18.40;;;;;;6198334;28;20036;-70
2022/06/29 14:42:19;;;;;;;4.57;1.60;;;47.00;18.50;;;;;;6198483;28;20034;-70
2022/06/29 14:45:20;;;;;;;6.70;1.60;;;46.80;18.70;;;;;;6181154;28;20316;-70
2022/06/29 14:48:21;;;;;;;7.13;1.50;;;46.80;18.70;;;;;;6182092;28;20208;-71
2022/06/29 14:51:22;;;;;;;8.02;1.40;;;46.70;18.80;;;;;;6163226;28;20030;-70
2022/06/29 14:54:23;;;;;;;5.15;1.10;;;46.60;18.80;;;;;;6163344;28;20094;-70
2022/06/29 14:57:24;;;;;;;1.58;1.38;;;46.20;19.20;;;;;;6164327;28;20030;-70
2022/06/29 15:00:26;;;;;;;5.38;1.35;;;46.10;19.20;;;;;;6185137;28;20030;-69
2022/06/29 15:03:28;;;;;;;2.22;1.50;;;45.90;19.30;;;;;;6162935;28;20632;-71
2022/06/29 15:06:29;;;;;;;6.72;1.50;;;45.50;19.30;;;;;;6180237;28;20065;-70
2022/06/29 15:09:32;;;;;;;2.42;1.30;;;45.30;19.50;;;;;;6177876;28;20026;-70
2022/06/29 15:12:34;;;;;;;1.73;1.30;;;45.30;19.60;;;;;;6184997;28;20022;-71
2022/06/29 15:15:35;;;;;;;6.43;1.38;;;45.20;19.70;;;;;;6202987;28;20110;-69
2022/06/29 15:18:36;;;;;;;2.40;2.15;;;45.00;19.70;;;;;;6185536;28;20030;-70
2022/06/29 15:21:38;;;;;;;6.30;1.65;;;44.80;19.80;;;;;;6168744;28;20082;-71
2022/06/29 15:24:39;;;;;;;2.85;1.50;;;45.00;19.80;;;;;;6160519;28;20456;-69
2022/06/29 15:27:40;;;;;;;2.90;1.40;;;45.10;19.80;;;;;;6167600;28;20053;-71
2022/06/29 15:30:42;;;;;;;2.03;1.30;;;45.30;19.50;;;;;;6162302;28;20055;-70
2022/06/29 15:40:23;;;;;;;2.90;1.27;;;44.30;19.90;;;;;;6183754;28;20042;-70
2022/06/29 15:43:24;;;;;;;4.13;1.73;;;43.90;20.10;;;;;;6174025;28;20105;-70
2022/06/29 15:46:28;;;;;;;3.10;1.42;;;43.80;20.30;;;;;;6161824;28;20050;-70
2022/06/29 15:49:29;;;;;;;5.68;1.48;;;43.50;20.30;;;;;;6185098;28;20037;-71
2022/06/29 15:52:31;;;;;;;2.65;1.13;;;43.40;20.40;;;;;;6184787;28;20041;-70
2022/06/29 15:55:34;;;;;;;4.80;1.40;;;43.40;20.30;;;;;;6202185;28;20423;-70
2022/06/29 15:58:36;;;;;;;5.80;1.40;;;43.60;20.20;;;;;;6170285;28;20038;-70
2022/06/29 16:01:37;;;;;;;2.83;1.33;;;43.90;20.20;;;;;;6185096;28;20047;-70
2022/06/29 16:04:38;;;;;;;1.25;1.15;;;43.80;20.10;;;;;;6197794;28;20073;-71
2022/06/29 16:07:42;;;;;;;6.93;1.65;;;43.80;20.10;;;;;;6184341;28;20038;-70
2022/06/29 16:10:43;;;;;;;7.53;1.85;;;43.70;20.20;;;;;;6184146;28;20053;-70
2022/06/29 16:13:44;;;;;;;2.08;1.40;;;43.80;20.30;;;;;;6185708;28;20093;-69
2022/06/29 16:16:45;;;;;;;2.00;1.23;;;43.80;20.80;;;;;;6161478;28;20109;-70